Time;durP1;ratioP1;P1;durP2;ratioP2;P2;SDS_P1;SDS_P2;PMS_P1;PMS_P2;Temp;Humidity;BMP_temperature;BMP_pressure;BME280_temperature;BME280_humidity;BME280_pressure;Samples;Min_cycle;Max_cycle;Signal;HPM_P1;HPM_P2
2023/04/27 00:00:43;;;;;;;4.67;4.27;;;;;;;12.54;50.64;98874.16;6949085;28;20321;-87
2023/04/27 00:04:05;;;;;;;8.50;4.07;;;;;;;12.57;50.62;98860.22;6970318;28;20283;-87
2023/04/27 00:07:27;;;;;;;5.63;3.73;;;;;;;12.37;51.03;98832.44;6979495;28;20203;-86
2023/04/27 00:10:48;;;;;;;3.93;3.50;;;;;;;12.38;51.62;98826.81;6980268;28;20293;-87
2023/04/27 00:14:11;;;;;;;4.13;3.73;;;;;;;12.97;49.61;98857.06;6979209;28;20471;-87
2023/04/27 00:17:34;;;;;;;6.83;4.00;;;;;;;13.00;48.67;98826.03;6981164;28;20289;-87
2023/04/27 00:20:56;;;;;;;5.90;4.00;;;;;;;12.87;49.97;98848.56;6980691;28;20226;-87
2023/04/27 00:24:17;;;;;;;7.03;5.57;;;;;;;12.77;50.00;98834.72;6997206;28;20283;-87
2023/04/27 00:27:39;;;;;;;7.23;6.37;;;;;;;12.63;49.04;98781.72;6978951;28;20202;-87
2023/04/27 00:31:02;;;;;;;7.07;4.73;;;;;;;12.85;49.94;98841.72;6988688;28;20214;-87
2023/04/27 00:34:25;;;;;;;6.03;4.30;;;;;;;12.79;49.89;98819.09;6968527;28;20233;-87
2023/04/27 00:37:47;;;;;;;6.70;4.10;;;;;;;12.51;50.97;98842.16;6951346;28;20199;-87
2023/04/27 00:45:08;;;;;;;6.73;4.30;;;;;;;12.22;50.84;98821.91;6949774;28;20226;-87
2023/04/27 00:52:59;;;;;;;4.50;3.83;;;;;;;12.54;50.91;98834.44;6977586;28;20664;-87
2023/04/27 00:56:21;;;;;;;4.10;3.80;;;;;;;12.34;51.23;98828.28;6978730;28;20695;-87
2023/04/27 00:59:43;;;;;;;4.03;3.63;;;;;;;12.70;48.91;98828.50;6978187;28;20222;-87
2023/04/27 01:03:04;;;;;;;5.10;3.77;;;;;;;12.72;49.24;98818.31;6977498;28;20214;-87
2023/04/27 01:06:27;;;;;;;5.70;4.00;;;;;;;12.89;48.39;98808.63;6972065;28;20421;-88
2023/04/27 01:09:50;;;;;;;6.77;4.03;;;;;;;13.09;48.40;98833.66;6950707;28;20207;-87
2023/04/27 01:13:14;;;;;;;5.80;3.70;;;;;;;13.00;48.90;98832.28;6949110;28;20215;-88
2023/04/27 01:16:36;;;;;;;4.77;4.13;;;;;;;12.03;49.47;98725.53;6950968;28;20270;-85
2023/04/27 01:19:58;;;;;;;4.10;3.80;;;;;;;12.51;49.82;98828.63;6950790;28;20218;-85
2023/04/27 01:23:22;;;;;;;5.57;3.93;;;;;;;12.59;50.00;98799.47;6949769;28;20211;-84
2023/04/27 01:26:44;;;;;;;7.07;4.13;;;;;;;12.58;50.25;98822.13;6950617;28;20543;-88
2023/04/27 01:30:07;;;;;;;6.07;3.37;;;;;;;12.37;48.72;98762.97;6950409;28;20690;-88
2023/04/27 01:33:28;;;;;;;4.50;4.10;;;;;;;11.76;51.03;98761.81;6952701;28;20252;-86
2023/04/27 01:36:50;;;;;;;4.50;4.10;;;;;;;11.87;50.65;98749.53;6949984;28;20353;-91
2023/04/27 01:40:13;;;;;;;5.07;4.23;;;;;;;12.31;50.34;98819.78;6949593;28;20309;-90
2023/04/27 01:43:35;;;;;;;5.40;4.17;;;;;;;12.24;50.35;98776.59;6949478;28;20317;-91
2023/04/27 01:46:57;;;;;;;6.77;5.13;;;;;;;11.98;49.79;98732.66;6949826;28;20206;-91
2023/04/27 01:50:19;;;;;;;7.03;5.23;;;;;;;12.01;51.75;98821.38;6949394;28;20203;-91
2023/04/27 01:53:41;;;;;;;5.23;4.40;;;;;;;11.69;51.78;98784.50;6948756;28;20778;-91
2023/04/27 01:57:04;;;;;;;5.67;3.93;;;;;;;11.94;51.92;98840.31;6949581;28;20542;-91
2023/04/27 02:00:26;;;;;;;4.63;3.67;;;;;;;11.71;52.08;98833.72;6949435;28;20234;-91
2023/04/27 02:03:47;;;;;;;6.73;4.80;;;;;;;11.46;52.44;98798.44;6949155;28;20332;-91
2023/04/27 02:07:09;;;;;;;4.70;4.10;;;;;;;12.09;51.03;98821.16;6948795;28;20200;-90
2023/04/27 02:10:31;;;;;;;7.17;4.37;;;;;;;12.10;50.66;98820.09;6948456;28;20683;-90
2023/04/27 02:14:16;;;;;;;5.87;4.37;;;;;;;12.05;51.31;98849.63;6947928;28;20378;-90
2023/04/27 02:17:38;;;;;;;5.83;4.10;;;;;;;11.75;51.34;98780.97;6948458;28;20284;-89
2023/04/27 02:21:00;;;;;;;6.90;4.00;;;;;;;11.52;52.11;98797.59;6948486;28;20622;-89
2023/04/27 02:24:22;;;;;;;5.17;4.33;;;;;;;11.17;53.54;98806.16;6948062;28;20235;-89
2023/04/27 02:27:43;;;;;;;5.23;4.00;;;;;;;11.67;51.73;98779.31;6947786;28;20673;-90
2023/04/27 02:31:06;;;;;;;7.27;4.20;;;;;;;12.13;51.13;98825.91;6948023;28;20257;-89
2023/04/27 02:34:28;;;;;;;5.80;4.33;;;;;;;11.54;52.04;98786.59;6950288;28;20227;-89
2023/04/27 02:37:49;;;;;;;6.60;3.73;;;;;;;10.93;53.53;98723.19;6952181;28;20211;-91
2023/04/27 02:41:11;;;;;;;5.37;4.20;;;;;;;11.34;52.94;98770.41;7009364;28;20238;-92
2023/04/27 02:44:32;;;;;;;4.27;3.63;;;;;;;11.96;50.98;98818.47;6974931;28;20219;-90
2023/04/27 02:47:55;;;;;;;8.20;4.37;;;;;;;11.52;52.38;98838.09;6959179;28;20207;-89
2023/04/27 02:51:24;;;;;;;15.63;4.27;;;;;;;11.65;53.03;98857.03;6947922;28;20214;-89
2023/04/27 02:54:45;;;;;;;7.60;4.80;;;;;;;11.60;53.92;98874.88;6984741;28;20221;-89
2023/04/27 02:58:07;;;;;;;7.57;5.63;;;;;;;11.49;51.73;98765.63;7002828;28;20300;-89
2023/04/27 03:01:30;;;;;;;7.90;3.90;;;;;;;11.85;51.60;98821.84;6980345;28;20233;-89
2023/04/27 03:04:56;;;;;;;6.60;3.77;;;;;;;11.92;52.18;98879.41;7002245;28;20363;-88
2023/04/27 03:08:17;;;;;;;7.30;4.70;;;;;;;11.45;53.25;98861.56;7002605;28;20211;-91
2023/04/27 03:11:39;;;;;;;6.07;4.30;;;;;;;11.08;52.85;98739.94;7002344;28;20332;-89
2023/04/27 03:15:01;;;;;;;8.33;4.23;;;;;;;12.01;51.79;98878.97;7001935;28;20316;-90
2023/04/27 03:18:22;;;;;;;5.37;3.87;;;;;;;11.94;52.43;98880.00;7002234;28;20300;-91
2023/04/27 03:21:45;;;;;;;6.00;4.07;;;;;;;11.29;53.94;98866.56;7001703;28;20282;-91
2023/04/27 03:25:07;;;;;;;10.70;4.30;;;;;;;11.08;53.72;98802.84;7001997;28;20358;-91
2023/04/27 03:28:29;;;;;;;9.63;4.47;;;;;;;11.62;53.13;98849.31;7001853;28;20198;-90
2023/04/27 03:31:50;;;;;;;4.47;4.07;;;;;;;11.69;53.12;98857.44;7001379;28;20351;-91
2023/04/27 03:35:12;;;;;;;5.80;4.20;;;;;;;11.93;52.89;98886.47;7002070;28;20313;-91
2023/04/27 03:38:35;;;;;;;6.73;4.30;;;;;;;11.46;54.00;98884.81;7003198;28;20257;-89
2023/04/27 03:41:58;;;;;;;5.37;4.87;;;;;;;11.87;53.20;98860.28;6964901;28;20226;-89
2023/04/27 03:45:21;;;;;;;7.40;5.30;;;;;;;12.22;51.79;98862.44;6980053;28;20379;-88
2023/04/27 03:48:42;;;;;;;7.37;3.60;;;;;;;11.68;51.51;98786.38;6979102;28;20213;-88
2023/04/27 03:52:10;;;;;;;9.47;4.70;;;;;;;11.69;52.34;98846.63;6979485;28;20203;-88
2023/04/27 03:55:33;;;;;;;5.30;4.67;;;;;;;11.29;52.92;98774.81;6979870;28;20223;-89
2023/04/27 03:58:54;;;;;;;5.33;4.70;;;;;;;11.75;53.03;98841.19;7000606;28;20193;-89
2023/04/27 04:02:16;;;;;;;4.60;4.10;;;;;;;11.96;52.96;98877.91;7001369;28;20291;-90
2023/04/27 04:05:37;;;;;;;4.63;4.20;;;;;;;11.72;53.35;98830.81;6981131;28;20218;-89
2023/04/27 04:08:59;;;;;;;6.67;4.80;;;;;;;11.23;53.95;98851.22;6981648;28;20291;-88
2023/04/27 04:12:22;;;;;;;5.70;4.53;;;;;;;11.63;54.13;98893.38;6980657;28;20289;-88
2023/04/27 04:15:44;;;;;;;7.93;4.53;;;;;;;11.62;53.29;98852.03;6980971;28;20363;-88
2023/04/27 04:19:05;;;;;;;6.73;4.83;;;;;;;11.73;52.11;98834.34;6980589;28;20194;-88
2023/04/27 04:22:27;;;;;;;6.27;4.20;;;;;;;12.05;52.71;98887.47;6990598;28;20290;-88
2023/04/27 04:25:48;;;;;;;6.90;4.77;;;;;;;11.91;53.11;98883.13;6980465;28;20308;-89
2023/04/27 04:29:11;;;;;;;4.77;4.10;;;;;;;11.80;52.93;98860.31;6980618;28;20198;-88
2023/04/27 04:32:36;;;;;;;5.07;4.27;;;;;;;11.72;53.31;98889.41;6980754;28;20336;-89
2023/04/27 04:35:57;;;;;;;4.40;4.00;;;;;;;10.92;54.35;98797.06;6981661;28;20246;-88
2023/04/27 04:39:19;;;;;;;5.47;4.20;;;;;;;11.77;53.98;98884.22;6983157;28;20222;-90
2023/04/27 04:46:21;;;;;;;10.03;5.03;;;;;;;11.46;54.57;98887.53;6981043;28;20231;-89
2023/04/27 04:59:04;;;;;;;6.50;4.50;;;;;;;11.84;52.99;98820.19;6959105;28;20574;-93
2023/04/27 05:07:32;;;;;;;4.53;4.13;;;;;;;11.67;52.33;98759.56;6939096;28;20202;-92
2023/04/27 05:11:14;;;;;;;9.43;5.20;;;;;;;11.98;52.18;98816.41;6979498;28;20709;-92
2023/04/27 05:14:40;;;;;;;10.93;5.10;;;;;;;12.04;51.74;98819.06;6979943;28;20247;-92
2023/04/27 05:18:03;;;;;;;9.07;4.87;;;;;;;12.04;51.63;98775.03;6980521;28;20543;-89
2023/04/27 05:21:26;;;;;;;5.80;4.23;;;;;;;12.14;51.91;98818.59;6979208;28;20224;-90
2023/04/27 05:24:49;;;;;;;5.87;4.23;;;;;;;12.53;52.09;98884.16;6980106;28;20230;-91
2023/04/27 05:28:37;;;;;;;5.23;4.23;;;;;;;12.85;51.88;98898.53;6981101;28;20218;-91
2023/04/27 05:32:15;;;;;;;6.87;4.40;;;;;;;12.27;52.40;98857.22;6979220;28;20198;-91
2023/04/27 05:35:42;;;;;;;6.67;4.83;;;;;;;11.64;51.96;98746.50;6985320;28;20606;-89
2023/04/27 05:39:07;;;;;;;6.90;5.00;;;;;;;12.82;51.67;98905.25;6979231;28;20199;-89
2023/04/27 05:42:40;;;;;;;7.10;4.20;;;;;;;12.62;50.74;98787.38;6979308;28;20230;-89
2023/04/27 05:46:06;;;;;;;6.80;4.80;;;;;;;12.65;51.07;98816.69;6929566;28;20800;-90
2023/04/27 05:49:30;;;;;;;9.20;4.77;;;;;;;13.16;50.65;98858.81;6979552;28;20204;-90
2023/04/27 05:52:54;;;;;;;5.73;4.90;;;;;;;12.85;50.56;98788.44;6968032;28;20664;-89
2023/04/27 05:56:18;;;;;;;9.97;5.40;;;;;;;13.79;49.76;98919.09;6978717;28;20290;-91
2023/04/27 05:59:39;;;;;;;4.90;4.40;;;;;;;13.41;49.37;98847.97;6978416;28;20218;-86
2023/04/27 06:03:02;;;;;;;5.27;4.60;;;;;;;13.35;48.49;98855.13;6978442;28;20221;-89
2023/04/27 06:06:46;;;;;;;6.37;4.97;;;;;;;13.51;48.09;98791.44;6978690;28;20223;-90
2023/04/27 06:10:11;;;;;;;6.27;4.90;;;;;;;13.80;45.75;98807.78;6978844;28;20283;-90
2023/04/27 06:13:33;;;;;;;9.40;4.43;;;;;;;14.61;46.89;98897.78;6978136;28;20314;-90
2023/04/27 06:16:55;;;;;;;6.50;4.30;;;;;;;14.41;46.25;98845.66;6978484;28;20221;-90
2023/04/27 06:20:20;;;;;;;5.90;3.97;;;;;;;14.91;44.87;98875.03;6978469;28;20236;-89
2023/04/27 06:23:42;;;;;;;6.43;4.20;;;;;;;14.88;45.66;98870.06;6978319;28;20258;-90
2023/04/27 06:27:08;;;;;;;5.73;4.43;;;;;;;14.68;45.39;98819.84;6978735;28;20702;-89
2023/04/27 06:30:30;;;;;;;8.90;4.67;;;;;;;14.82;44.61;98808.53;6977813;28;20208;-90
2023/04/27 06:33:52;;;;;;;7.00;4.13;;;;;;;14.91;45.18;98896.75;6977521;28;20225;-90
2023/04/27 06:41:47;;;;;;;8.23;4.80;;;;;;;15.37;43.77;98855.31;6983366;28;20227;-90
2023/04/27 06:45:26;;;;;;;10.87;5.20;;;;;;;15.50;42.95;98807.00;6977536;28;20219;-89
2023/04/27 06:48:47;;;;;;;7.63;4.43;;;;;;;16.53;41.85;98927.69;6977229;28;20790;-87
2023/04/27 06:52:11;;;;;;;7.03;4.20;;;;;;;15.59;40.83;98840.09;6978125;28;20629;-89
2023/04/27 06:55:33;;;;;;;8.73;4.47;;;;;;;16.28;40.30;98840.84;6977215;28;20220;-88
2023/04/27 06:58:55;;;;;;;5.37;3.93;;;;;;;16.75;38.25;98842.38;6987177;28;20189;-91
2023/04/27 07:02:18;;;;;;;4.80;3.87;;;;;;;16.45;38.39;98870.91;6992499;28;20253;-87
2023/04/27 07:05:40;;;;;;;8.03;3.30;;;;;;;16.18;38.64;98845.25;6977515;28;20220;-87
2023/04/27 07:09:02;;;;;;;6.47;3.87;;;;;;;17.55;37.24;98931.06;6977777;28;20244;-87
2023/04/27 07:12:23;;;;;;;7.60;3.23;;;;;;;17.00;36.40;98831.13;6978111;28;20305;-87
2023/04/27 07:15:45;;;;;;;6.80;3.70;;;;;;;17.66;36.43;98905.63;6987903;28;20232;-89
2023/04/27 07:19:08;;;;;;;4.27;3.20;;;;;;;17.56;36.40;98869.16;7007193;28;20429;-92
2023/04/27 07:22:30;;;;;;;3.30;3.00;;;;;;;17.94;35.93;98885.59;7017353;28;20229;-92
2023/04/27 07:25:52;;;;;;;6.17;3.60;;;;;;;18.23;36.12;98928.06;7008330;28;20230;-90
2023/04/27 07:29:16;;;;;;;5.47;3.40;;;;;;;18.05;35.44;98884.69;7007906;28;20253;-89
2023/04/27 07:32:39;;;;;;;8.27;4.00;;;;;;;18.42;35.17;98926.72;7008122;28;20251;-89
2023/04/27 07:36:03;;;;;;;5.57;3.67;;;;;;;18.27;35.46;98872.72;6989357;28;20218;-89
2023/04/27 07:39:25;;;;;;;5.00;3.77;;;;;;;17.69;35.52;98926.13;6983157;28;20282;-88
2023/04/27 07:42:47;;;;;;;6.43;3.50;;;;;;;17.61;35.72;98840.09;6983049;28;20232;-88
2023/04/27 07:46:08;;;;;;;3.37;2.83;;;;;;;18.12;35.84;98923.53;6982003;28;20253;-88
2023/04/27 07:49:30;;;;;;;9.43;3.70;;;;;;;17.78;34.91;98903.66;6982048;28;20243;-89
2023/04/27 07:52:53;;;;;;;6.03;3.80;;;;;;;18.19;37.24;98916.00;6981502;28;20213;-88
2023/04/27 07:56:15;;;;;;;6.37;3.30;;;;;;;18.67;35.66;98891.53;6981244;28;20304;-88
2023/04/27 07:59:37;;;;;;;8.27;3.70;;;;;;;19.17;34.24;98909.34;6981749;28;20218;-89
2023/04/27 08:02:59;;;;;;;7.20;3.30;;;;;;;20.71;33.04;98919.91;6981056;28;20289;-88
2023/04/27 08:06:21;;;;;;;5.03;3.37;;;;;;;19.67;33.47;98900.81;6981337;28;20254;-88
2023/04/27 08:09:43;;;;;;;6.30;3.33;;;;;;;18.44;36.69;98922.66;6986440;28;20276;-88
2023/04/27 08:13:08;;;;;;;7.10;3.37;;;;;;;18.27;36.50;98866.44;6980743;28;20241;-88
2023/04/27 08:16:30;;;;;;;4.87;3.60;;;;;;;19.21;35.25;98906.97;7004450;28;20680;-88
2023/04/27 08:19:51;;;;;;;5.83;3.50;;;;;;;19.09;34.34;98906.25;7008844;28;20205;-87
2023/04/27 08:23:13;;;;;;;5.17;3.53;;;;;;;19.60;33.81;98894.75;7008537;28;20772;-88
2023/04/27 08:26:36;;;;;;;5.83;3.73;;;;;;;20.48;32.19;98860.06;6984843;28;20651;-88
2023/04/27 08:29:59;;;;;;;3.60;3.17;;;;;;;21.92;30.01;98894.41;6981509;28;20297;-88
2023/04/27 08:33:21;;;;;;;3.90;3.50;;;;;;;21.36;30.87;98901.75;6980650;28;20260;-86
2023/04/27 08:36:42;;;;;;;5.93;3.50;;;;;;;21.54;31.19;98906.72;6980540;28;20579;-87
2023/04/27 08:40:06;;;;;;;6.03;3.23;;;;;;;21.57;30.68;98870.50;6980526;28;20233;-88
2023/04/27 08:43:33;;;;;;;5.33;3.57;;;;;;;20.99;30.49;98837.25;6980494;28;20233;-88
2023/04/27 08:46:54;;;;;;;6.20;3.20;;;;;;;20.55;31.85;98832.41;6982943;28;20185;-87
2023/04/27 08:50:16;;;;;;;7.67;3.50;;;;;;;21.01;30.42;98766.53;6986530;28;20207;-87
2023/04/27 08:53:43;;;;;;;5.00;3.70;;;;;;;20.59;30.61;98861.78;6985902;28;20233;-88
2023/04/27 08:57:09;;;;;;;4.90;3.07;;;;;;;21.53;30.37;98866.66;6983410;28;20228;-87
2023/04/27 09:00:39;;;;;;;6.00;3.60;;;;;;;21.79;29.66;98868.34;6980327;28;20194;-87
2023/04/27 09:04:01;;;;;;;3.63;3.30;;;;;;;22.04;29.42;98872.97;6986549;28;20227;-87
2023/04/27 09:07:22;;;;;;;6.57;3.20;;;;;;;20.95;29.82;98862.72;7010932;28;20252;-88
2023/04/27 09:10:45;;;;;;;4.87;3.47;;;;;;;20.70;29.99;98866.19;7011168;28;20231;-87
2023/04/27 09:14:16;;;;;;;4.47;3.63;;;;;;;20.61;29.41;98842.31;6991427;28;20219;-87
2023/04/27 09:17:39;;;;;;;5.77;3.20;;;;;;;22.09;26.68;98772.19;6955563;28;20248;-87
2023/04/27 09:21:03;;;;;;;4.80;3.20;;;;;;;22.80;26.01;98797.44;6951872;28;20227;-86
2023/04/27 09:24:24;;;;;;;4.97;3.07;;;;;;;22.47;27.31;98771.50;6951799;28;20228;-86
2023/04/27 09:27:46;;;;;;;5.13;3.70;;;;;;;23.95;26.31;98862.69;6973863;28;20254;-88
2023/04/27 09:31:09;;;;;;;5.27;3.00;;;;;;;24.19;26.07;98877.31;6978815;28;20230;-89
2023/04/27 09:34:41;;;;;;;9.43;3.87;;;;;;;22.62;26.26;98763.19;6978571;28;20234;-88
2023/04/27 09:38:03;;;;;;;13.23;3.90;;;;;;;23.44;26.09;98829.22;6978318;28;20204;-87
2023/04/27 09:41:25;;;;;;;8.17;3.90;;;;;;;23.18;26.09;98837.97;6978766;28;20575;-82
2023/04/27 09:44:46;;;;;;;5.10;3.03;;;;;;;23.95;25.07;98873.69;6978553;28;20306;-84
2023/04/27 09:48:09;;;;;;;7.30;3.37;;;;;;;21.79;27.33;98882.09;6959558;28;20291;-86
2023/04/27 09:51:32;;;;;;;6.73;3.33;;;;;;;23.48;26.60;98871.56;6950832;28;20208;-87
2023/04/27 09:54:54;;;;;;;9.43;3.27;;;;;;;23.11;27.67;98805.22;6950248;28;20228;-87
2023/04/27 09:58:58;;;;;;;5.60;3.50;;;;;;;22.62;26.61;98855.81;6967357;28;20664;-87
2023/04/27 10:02:21;;;;;;;4.70;3.43;;;;;;;22.94;26.92;98865.28;7004800;28;20270;-82
2023/04/27 10:05:55;;;;;;;5.33;2.87;;;;;;;21.04;28.23;98850.16;6960348;28;20277;-83
2023/04/27 10:09:23;;;;;;;4.97;3.60;;;;;;;20.56;28.66;98872.41;6969510;28;20203;-88
2023/04/27 10:12:55;;;;;;;4.33;3.37;;;;;;;22.04;28.03;98856.50;7004868;28;20676;-87
2023/04/27 10:16:19;;;;;;;6.00;3.60;;;;;;;22.92;25.81;98851.00;6999107;28;20220;-88
2023/04/27 10:19:40;;;;;;;5.03;3.30;;;;;;;24.15;25.13;98848.69;6977317;28;20324;-84
2023/04/27 10:23:02;;;;;;;4.30;3.50;;;;;;;23.21;25.16;98859.38;6973660;28;20229;-86
2023/04/27 10:26:26;;;;;;;5.63;3.47;;;;;;;22.38;25.37;98866.59;6977884;28;20373;-86
2023/04/27 10:29:48;;;;;;;6.57;3.53;;;;;;;22.52;24.62;98795.38;6978178;28;20345;-86
2023/04/27 10:33:11;;;;;;;4.70;2.97;;;;;;;22.30;24.46;98866.34;6977251;28;20212;-86
2023/04/27 10:36:37;;;;;;;3.60;3.10;;;;;;;23.38;25.43;98848.81;6976084;28;20226;-86
2023/04/27 10:40:07;;;;;;;7.30;3.63;;;;;;;22.79;26.15;98840.63;7004987;28;20232;-84
2023/04/27 10:43:31;;;;;;;7.33;3.67;;;;;;;22.31;26.34;98859.75;6980370;28;20213;-84
2023/04/27 10:46:54;;;;;;;5.63;3.30;;;;;;;22.88;26.95;98830.66;6975856;28;20372;-87
2023/04/27 10:50:17;;;;;;;4.33;3.23;;;;;;;23.55;26.00;98844.53;6975803;28;20212;-87
2023/04/27 10:53:38;;;;;;;4.70;3.43;;;;;;;22.88;25.45;98818.84;6978870;28;20351;-87
2023/04/27 10:57:07;;;;;;;8.80;3.80;;;;;;;23.42;25.51;98845.19;6984851;28;20198;-85
2023/04/27 11:00:33;;;;;;;6.63;3.37;;;;;;;24.46;24.92;98814.16;6980914;28;20213;-88
2023/04/27 11:03:55;;;;;;;4.70;3.67;;;;;;;23.19;25.78;98798.31;6977995;28;20234;-87
2023/04/27 11:07:24;;;;;;;5.47;3.47;;;;;;;23.35;24.49;98841.94;6977299;28;20216;-86
2023/04/27 11:10:48;;;;;;;4.90;3.50;;;;;;;21.81;26.87;98819.47;6977099;28;20189;-88
2023/04/27 11:14:10;;;;;;;5.63;3.87;;;;;;;22.26;26.68;98843.28;6977534;28;20232;-88
2023/04/27 11:17:33;;;;;;;5.57;3.80;;;;;;;22.68;26.75;98822.53;6999801;28;20237;-88
2023/04/27 11:21:06;;;;;;;4.40;3.30;;;;;;;23.08;26.52;98837.97;6977240;28;20207;-87
2023/04/27 11:24:28;;;;;;;5.67;3.83;;;;;;;22.65;26.42;98770.88;6994149;28;20635;-86
2023/04/27 11:27:49;;;;;;;5.67;4.00;;;;;;;23.49;25.65;98822.84;6977093;28;20209;-87
2023/04/27 11:31:11;;;;;;;6.47;4.00;;;;;;;23.76;25.97;98727.63;6976680;28;20205;-86
2023/04/27 11:34:37;;;;;;;4.43;4.00;;;;;;;24.47;24.60;98838.69;6976550;28;20225;-86
2023/04/27 11:37:59;;;;;;;4.90;3.80;;;;;;;23.48;26.33;98821.22;6976404;28;20201;-86
2023/04/27 11:41:22;;;;;;;5.00;4.10;;;;;;;23.56;24.91;98735.25;6976497;28;20201;-86
2023/04/27 11:44:49;;;;;;;5.23;4.17;;;;;;;23.27;25.48;98800.47;6987061;28;20222;-85
2023/04/27 11:48:13;;;;;;;5.00;3.87;;;;;;;24.04;25.06;98792.91;6977141;28;20210;-87
2023/04/27 11:51:36;;;;;;;5.93;4.00;;;;;;;23.50;25.12;98814.31;6976385;28;20686;-87
2023/04/27 11:54:59;;;;;;;4.20;3.73;;;;;;;23.75;25.64;98819.59;6964844;28;20230;-85
2023/04/27 11:58:21;;;;;;;6.67;4.17;;;;;;;23.63;25.94;98840.34;6948949;28;20198;-86
2023/04/27 12:01:42;;;;;;;6.37;4.20;;;;;;;23.51;26.16;98829.72;6990059;28;20312;-86
2023/04/27 12:05:06;;;;;;;8.20;4.57;;;;;;;23.50;26.15;98828.09;6981451;28;20685;-86
2023/04/27 12:08:29;;;;;;;5.63;4.23;;;;;;;22.90;26.32;98773.44;6979225;28;20203;-86
2023/04/27 12:11:50;;;;;;;4.60;3.83;;;;;;;24.11;26.17;98815.41;6988504;28;20201;-86
2023/04/27 12:15:12;;;;;;;6.43;4.30;;;;;;;23.76;24.94;98823.16;6980898;28;20228;-86
2023/04/27 12:18:34;;;;;;;7.73;4.53;;;;;;;22.16;27.81;98810.34;6980453;28;20220;-86
2023/04/27 12:21:56;;;;;;;8.00;5.10;;;;;;;22.31;26.38;98755.34;6979762;28;20289;-86
2023/04/27 12:25:18;;;;;;;7.20;5.13;;;;;;;21.53;26.97;98765.16;6979911;28;20746;-85
2023/04/27 12:28:40;;;;;;;6.23;4.73;;;;;;;22.52;27.51;98792.63;6979918;28;20690;-86
2023/04/27 12:32:02;;;;;;;6.03;4.87;;;;;;;23.28;25.98;98791.94;6974714;28;20223;-88
2023/04/27 12:35:23;;;;;;;4.70;4.20;;;;;;;23.81;25.87;98790.06;6980225;28;20225;-86
2023/04/27 12:38:45;;;;;;;7.23;5.57;;;;;;;23.26;25.51;98798.81;6980016;28;20227;-85
2023/04/27 12:42:08;;;;;;;7.23;4.43;;;;;;;22.27;26.66;98803.72;6979391;28;20220;-86
2023/04/27 12:45:29;;;;;;;7.93;4.53;;;;;;;22.86;25.11;98731.16;6979602;28;20229;-86
2023/04/27 12:48:51;;;;;;;9.47;5.10;;;;;;;22.30;26.42;98798.47;6956250;28;20291;-87
2023/04/27 12:52:13;;;;;;;6.13;3.73;;;;;;;22.21;27.89;98769.97;6957017;28;20358;-85
2023/04/27 12:55:35;;;;;;;8.73;4.70;;;;;;;22.33;28.68;98791.59;6979666;28;20232;-86
2023/04/27 12:58:58;;;;;;;5.70;4.33;;;;;;;24.00;25.27;98775.28;6980215;28;20210;-85
2023/04/27 13:02:20;;;;;;;4.60;4.00;;;;;;;24.57;25.23;98772.44;6979504;28;20328;-85
2023/04/27 13:05:43;;;;;;;5.67;4.20;;;;;;;24.55;24.92;98780.13;6979656;28;20259;-86
2023/04/27 13:09:05;;;;;;;7.83;4.27;;;;;;;24.73;23.64;98713.19;6979540;28;20200;-85
2023/04/27 13:12:27;;;;;;;6.80;4.20;;;;;;;24.71;24.08;98756.78;6978985;28;20203;-85
2023/04/27 13:15:50;;;;;;;4.73;3.90;;;;;;;24.41;25.31;98753.56;6979269;28;20218;-86
2023/04/27 13:19:11;;;;;;;6.07;4.37;;;;;;;23.76;25.16;98768.91;6979659;28;20227;-86
2023/04/27 13:22:33;;;;;;;8.27;3.90;;;;;;;23.22;25.39;98764.72;6979298;28;20312;-86
2023/04/27 13:25:54;;;;;;;4.63;3.40;;;;;;;23.73;24.81;98686.06;6984586;28;20230;-85
2023/04/27 13:29:17;;;;;;;4.87;3.77;;;;;;;24.39;25.83;98733.78;6995823;28;20231;-86
2023/04/27 13:32:40;;;;;;;5.23;4.07;;;;;;;23.19;25.31;98663.53;6977087;28;20230;-85
2023/04/27 13:36:02;;;;;;;4.87;4.30;;;;;;;23.56;25.71;98738.00;6978721;28;20229;-85
2023/04/27 13:39:24;;;;;;;5.67;3.73;;;;;;;24.45;24.49;98705.84;6979748;28;20212;-84
2023/04/27 13:42:45;;;;;;;5.07;3.90;;;;;;;25.31;23.33;98757.84;6979150;28;20236;-84
2023/04/27 13:46:07;;;;;;;4.43;3.53;;;;;;;25.42;23.51;98732.50;6979294;28;20272;-85
2023/04/27 13:49:30;;;;;;;5.27;3.60;;;;;;;24.75;25.13;98757.84;6964385;28;20205;-84
2023/04/27 13:52:51;;;;;;;6.83;3.73;;;;;;;23.81;25.11;98737.75;6950828;28;20342;-85
2023/04/27 13:56:13;;;;;;;3.60;3.27;;;;;;;24.20;25.42;98739.22;6965061;28;20260;-85
2023/04/27 13:59:34;;;;;;;4.47;3.50;;;;;;;23.71;25.94;98732.38;6985715;28;20216;-84
2023/04/27 14:02:56;;;;;;;4.80;3.60;;;;;;;24.31;25.54;98738.00;6985131;28;20269;-85
2023/04/27 14:06:19;;;;;;;4.73;3.33;;;;;;;25.53;23.86;98731.22;6978322;28;20225;-85
2023/04/27 14:09:41;;;;;;;7.63;3.80;;;;;;;24.48;24.45;98713.50;6976705;28;20220;-85
2023/04/27 14:13:02;;;;;;;5.17;3.50;;;;;;;25.30;24.66;98698.25;6984795;28;20682;-85
2023/04/27 14:16:25;;;;;;;4.53;3.20;;;;;;;25.16;25.03;98724.91;6978194;28;20229;-85
2023/04/27 14:19:46;;;;;;;7.20;3.87;;;;;;;25.35;24.08;98734.00;6966980;28;20209;-84
2023/04/27 14:23:11;;;;;;;4.37;3.40;;;;;;;24.64;25.66;98748.06;6977441;28;20230;-85
2023/04/27 14:26:33;;;;;;;4.47;3.83;;;;;;;24.22;25.61;98734.28;6979133;28;20321;-84
2023/04/27 14:29:54;;;;;;;3.80;3.33;;;;;;;24.60;25.19;98733.22;6979680;28;20623;-82
2023/04/27 14:33:16;;;;;;;4.07;3.17;;;;;;;24.24;25.15;98689.91;6977507;28;20207;-85
2023/04/27 14:36:37;;;;;;;4.43;3.23;;;;;;;24.05;25.92;98733.94;6976775;28;20300;-83
2023/04/27 14:40:02;;;;;;;5.33;3.40;;;;;;;24.83;25.21;98724.06;6977020;28;20698;-83
2023/04/27 14:43:23;;;;;;;4.97;3.53;;;;;;;24.15;25.60;98720.03;6977667;28;20230;-86
2023/04/27 14:46:45;;;;;;;3.43;3.13;;;;;;;23.65;25.77;98728.81;6977316;28;20684;-85
2023/04/27 14:50:07;;;;;;;5.40;3.70;;;;;;;23.93;25.72;98735.44;6977815;28;20212;-84
2023/04/27 14:53:29;;;;;;;5.00;4.00;;;;;;;22.81;26.84;98727.59;6971590;28;20299;-85
2023/04/27 14:56:52;;;;;;;4.43;3.63;;;;;;;22.38;27.40;98740.22;6976561;28;20199;-85
2023/04/27 15:00:15;;;;;;;3.50;3.20;;;;;;;22.12;28.11;98707.66;6977707;28;20245;-84
2023/04/27 15:03:37;;;;;;;4.00;2.90;;;;;;;23.04;27.04;98713.13;6976135;28;20235;-85
2023/04/27 15:06:58;;;;;;;5.03;3.80;;;;;;;22.94;26.55;98714.03;6977747;28;20634;-85
2023/04/27 15:10:20;;;;;;;4.90;3.50;;;;;;;22.41;27.80;98745.13;6982127;28;20201;-85
2023/04/27 15:13:43;;;;;;;3.60;3.30;;;;;;;23.39;27.43;98732.94;6968786;28;20229;-85
2023/04/27 15:17:04;;;;;;;8.00;3.90;;;;;;;23.90;26.22;98736.84;6977654;28;20608;-85
2023/04/27 15:20:26;;;;;;;3.83;3.43;;;;;;;23.59;26.59;98727.25;6976029;28;20207;-85
2023/04/27 15:23:48;;;;;;;5.33;3.40;;;;;;;23.18;26.96;98725.16;6975819;28;20266;-85
2023/04/27 15:27:09;;;;;;;6.87;3.50;;;;;;;23.72;27.50;98745.00;6976060;28;20201;-85
2023/04/27 15:30:34;;;;;;;4.63;3.47;;;;;;;23.78;26.25;98733.63;6976900;28;20531;-85
2023/04/27 15:33:56;;;;;;;6.10;3.93;;;;;;;23.09;26.55;98711.19;6979815;28;20232;-86
2023/04/27 15:37:17;;;;;;;5.80;4.10;;;;;;;23.40;26.32;98734.59;6983037;28;20199;-83
2023/04/27 15:40:39;;;;;;;4.47;3.67;;;;;;;23.20;26.19;98723.75;6997219;28;20193;-83
2023/04/27 15:44:01;;;;;;;4.90;3.77;;;;;;;23.48;26.20;98722.94;6986686;28;20227;-83
2023/04/27 15:47:24;;;;;;;6.90;3.60;;;;;;;23.51;26.55;98705.03;6986904;28;20235;-83
2023/04/27 15:50:46;;;;;;;4.63;3.30;;;;;;;23.30;27.12;98712.66;6979694;28;20266;-84
2023/04/27 15:54:07;;;;;;;6.17;3.80;;;;;;;23.35;26.72;98725.53;6983839;28;20220;-83
2023/04/27 15:57:29;;;;;;;4.97;3.40;;;;;;;22.96;27.46;98702.75;6984736;28;20262;-83
2023/04/27 16:00:50;;;;;;;3.93;3.43;;;;;;;23.03;26.96;98717.81;6984863;28;20446;-84
2023/04/27 16:04:13;;;;;;;4.20;3.63;;;;;;;23.39;26.90;98719.19;6984329;28;20818;-83
2023/04/27 16:07:36;;;;;;;6.57;4.03;;;;;;;23.01;26.89;98705.47;6984865;28;20696;-83
2023/04/27 16:10:57;;;;;;;8.27;4.33;;;;;;;23.32;27.12;98682.94;6988582;28;20306;-83
2023/04/27 16:14:19;;;;;;;6.73;4.60;;;;;;;23.11;27.66;98691.59;6984535;28;20298;-83
2023/04/27 16:17:40;;;;;;;8.83;4.50;;;;;;;21.98;28.97;98701.94;6984539;28;20680;-83
2023/04/27 16:21:03;;;;;;;4.77;4.23;;;;;;;21.27;29.89;98663.97;6988363;28;20291;-82
2023/04/27 16:24:25;;;;;;;8.80;4.23;;;;;;;22.51;29.31;98679.16;6985806;28;20485;-83
2023/04/27 16:27:47;;;;;;;8.57;4.90;;;;;;;22.55;28.60;98685.72;6987054;28;20568;-83